Time;durP1;ratioP1;P1;durP2;ratioP2;P2;SDS_P1;SDS_P2;PMS_P1;PMS_P2;Temp;Humidity;BMP_temperature;BMP_pressure;BME280_temperature;BME280_humidity;BME280_pressure;Samples;Min_cycle;Max_cycle;Signal;HPM_P1;HPM_P2
2021/04/29 00:02:01;;;;;;;51.65;39.63;;;;;;;;;;6329568;27;20079;-68
2021/04/29 00:05:03;;;;;;;54.03;42.17;;;;;;;;;;6337728;27;20075;-68
2021/04/29 00:08:04;;;;;;;56.10;41.40;;;;;;;;;;6332175;28;20052;-68
2021/04/29 00:11:07;;;;;;;54.42;42.22;;;;;;;;;;6334384;27;20153;-68
2021/04/29 00:14:10;;;;;;;54.85;42.85;;;;;;;;;;6336224;27;20122;-68
2021/04/29 00:17:12;;;;;;;58.28;43.58;;;;;;;;;;6334148;27;20093;-68
2021/04/29 00:20:15;;;;;;;58.22;44.35;;;;;;;;;;6326906;27;20513;-68
2021/04/29 00:23:16;;;;;;;56.33;44.28;;;;;;;;;;6326236;28;20569;-67
2021/04/29 00:26:17;;;;;;;55.97;43.15;;;;;;;;;;6327318;27;20145;-68
2021/04/29 00:29:19;;;;;;;60.50;46.08;;;;;;;;;;6328226;27;20048;-67
2021/04/29 00:32:21;;;;;;;59.95;44.85;;;;;;;;;;6330713;28;20471;-68
2021/04/29 00:35:22;;;;;;;59.90;45.25;;;;;;;;;;6330571;28;20062;-68
2021/04/29 00:38:24;;;;;;;58.95;45.45;;;;;;;;;;6295230;27;20433;-68
2021/04/29 00:41:25;;;;;;;62.65;47.13;;;;;;;;;;6327109;28;20121;-68
2021/04/29 00:44:26;;;;;;;61.47;45.72;;;;;;;;;;6329769;28;20050;-68
2021/04/29 00:47:28;;;;;;;66.00;46.90;;;;;;;;;;6331870;27;20052;-67
2021/04/29 00:50:29;;;;;;;60.05;46.80;;;;;;;;;;6326395;27;20474;-68
2021/04/29 00:53:36;;;;;;;62.00;46.38;;;;;;;;;;6326626;28;20040;-69
2021/04/29 00:56:37;;;;;;;66.97;48.05;;;;;;;;;;6334211;28;20044;-69
2021/04/29 00:59:38;;;;;;;62.67;47.17;;;;;;;;;;6301980;28;20040;-69
2021/04/29 01:05:55;;;;;;;63.60;46.95;;;;;;;;;;6206002;28;20042;-73
2021/04/29 01:08:59;;;;;;;65.88;48.45;;;;;;;;;;6209523;28;20042;-72
2021/04/29 01:12:01;;;;;;;62.72;47.72;;;;;;;;;;6211280;28;20057;-72
2021/04/29 01:15:02;;;;;;;62.03;47.63;;;;;;;;;;6209714;28;20133;-70
2021/04/29 01:18:04;;;;;;;60.47;47.42;;;;;;;;;;6213189;28;20149;-71
2021/04/29 01:21:11;;;;;;;66.03;48.13;;;;;;;;;;6208612;28;20429;-70
2021/04/29 01:24:15;;;;;;;62.90;48.72;;;;;;;;;;6199893;28;20044;-70
2021/04/29 01:27:18;;;;;;;61.78;47.53;;;;;;;;;;6206176;28;20048;-70
2021/04/29 01:30:20;;;;;;;64.53;49.10;;;;;;;;;;6203115;28;20058;-70
2021/04/29 01:33:21;;;;;;;64.57;49.08;;;;;;;;;;6213893;28;20057;-69
2021/04/29 01:36:22;;;;;;;65.28;49.30;;;;;;;;;;6204666;28;20086;-69
2021/04/29 01:39:24;;;;;;;65.38;49.17;;;;;;;;;;6204618;28;20078;-71
2021/04/29 01:42:26;;;;;;;64.70;49.63;;;;;;;;;;6205874;28;20054;-70
2021/04/29 01:45:27;;;;;;;65.10;48.05;;;;;;;;;;6208016;28;20424;-70
2021/04/29 01:48:28;;;;;;;64.25;48.60;;;;;;;;;;6205911;28;20042;-68
2021/04/29 01:51:30;;;;;;;61.78;48.00;;;;;;;;;;6207383;28;20038;-69
2021/04/29 01:54:31;;;;;;;65.65;49.13;;;;;;;;;;6211937;28;20045;-71
2021/04/29 01:57:33;;;;;;;64.85;49.28;;;;;;;;;;6199798;28;20048;-70
2021/04/29 02:00:34;;;;;;;64.78;49.28;;;;;;;;;;6204092;28;20042;-71
2021/04/29 02:03:35;;;;;;;62.05;48.10;;;;;;;;;;6205314;28;20061;-72
2021/04/29 02:06:36;;;;;;;65.90;49.00;;;;;;;;;;6211395;28;20387;-71
2021/04/29 02:09:37;;;;;;;62.97;48.42;;;;;;;;;;6211754;28;20049;-72
2021/04/29 02:12:42;;;;;;;64.70;48.55;;;;;;;;;;6206213;28;20064;-70
2021/04/29 02:15:48;;;;;;;63.78;48.35;;;;;;;;;;6208543;28;20122;-72
2021/04/29 02:18:50;;;;;;;67.20;48.17;;;;;;;;;;6206364;28;20095;-70
2021/04/29 02:21:51;;;;;;;61.53;47.47;;;;;;;;;;6202537;28;20074;-70
2021/04/29 02:24:54;;;;;;;64.10;47.08;;;;;;;;;;6201444;28;20381;-70
2021/04/29 02:27:58;;;;;;;63.08;47.45;;;;;;;;;;6205725;28;20138;-70
2021/04/29 02:30:59;;;;;;;;;;;;;;;;;;6206417;28;20088;-70
2021/04/29 02:34:00;;;;;;;66.30;48.45;;;;;;;;;;6205247;28;20373;-70
2021/04/29 02:37:01;;;;;;;66.43;50.65;;;;;;;;;;6204153;28;20043;-70
2021/04/29 02:40:04;;;;;;;65.43;50.88;;;;;;;;;;6207651;28;20053;-70
2021/04/29 02:43:10;;;;;;;66.50;50.50;;;;;;;;;;6203954;28;20129;-70
2021/04/29 02:46:11;;;;;;;66.85;50.13;;;;;;;;;;6210067;28;20042;-70
2021/04/29 02:49:12;;;;;;;63.83;47.25;;;;;;;;;;6205439;28;20146;-70
2021/04/29 02:52:13;;;;;;;68.72;49.30;;;;;;;;;;6201122;28;20052;-70
2021/04/29 02:55:14;;;;;;;64.53;48.58;;;;;;;;;;6205829;28;20038;-70
2021/04/29 02:58:17;;;;;;;64.63;47.45;;;;;;;;;;6201721;28;20038;-69
2021/04/29 03:01:19;;;;;;;67.05;49.60;;;;;;;;;;6198854;28;20069;-70
2021/04/29 03:04:20;;;;;;;62.38;47.58;;;;;;;;;;6205612;28;20045;-67
2021/04/29 03:07:21;;;;;;;60.55;45.63;;;;;;;;;;6205605;28;20141;-70
2021/04/29 03:10:23;;;;;;;58.78;46.30;;;;;;;;;;6198032;28;20049;-70
2021/04/29 03:13:25;;;;;;;64.03;47.75;;;;;;;;;;6194795;28;20047;-70
2021/04/29 03:16:26;;;;;;;64.40;47.25;;;;;;;;;;6205123;28;22865;-70
2021/04/29 03:19:27;;;;;;;60.10;46.17;;;;;;;;;;6201967;28;20133;-70
2021/04/29 03:22:28;;;;;;;65.30;48.10;;;;;;;;;;6204035;28;20695;-70
2021/04/29 03:25:29;;;;;;;62.72;48.13;;;;;;;;;;6207708;28;20046;-70
2021/04/29 03:28:31;;;;;;;61.30;46.92;;;;;;;;;;6204764;28;20722;-70
2021/04/29 03:31:33;;;;;;;62.20;48.35;;;;;;;;;;6208106;28;20693;-70
2021/04/29 03:34:34;;;;;;;63.70;48.95;;;;;;;;;;6210955;28;20311;-70
2021/04/29 03:37:36;;;;;;;60.53;47.17;;;;;;;;;;6212659;28;20066;-70
2021/04/29 03:40:37;;;;;;;61.70;47.28;;;;;;;;;;6205373;28;20090;-70
2021/04/29 03:43:39;;;;;;;66.00;48.08;;;;;;;;;;6215019;28;20034;-70
2021/04/29 03:46:40;;;;;;;62.30;46.47;;;;;;;;;;6210218;28;20125;-70
2021/04/29 03:49:41;;;;;;;61.63;45.95;;;;;;;;;;6213569;28;20041;-70
2021/04/29 03:52:42;;;;;;;59.30;46.58;;;;;;;;;;6215742;28;20037;-70
2021/04/29 03:55:43;;;;;;;62.63;46.38;;;;;;;;;;6211514;28;20611;-70
2021/04/29 03:58:45;;;;;;;67.70;47.05;;;;;;;;;;6210414;28;20085;-70
2021/04/29 04:01:46;;;;;;;60.78;47.33;;;;;;;;;;6204143;28;20153;-70
2021/04/29 04:04:47;;;;;;;63.28;47.42;;;;;;;;;;6205571;28;20129;-70
2021/04/29 04:07:48;;;;;;;61.20;46.50;;;;;;;;;;6204901;28;20126;-71
2021/04/29 04:10:49;;;;;;;61.72;46.80;;;;;;;;;;6211042;28;20054;-70
2021/04/29 04:13:51;;;;;;;64.45;47.30;;;;;;;;;;6206155;28;20656;-70
2021/04/29 04:16:52;;;;;;;66.78;48.58;;;;;;;;;;6210489;28;20128;-70
2021/04/29 04:19:53;;;;;;;64.75;47.78;;;;;;;;;;6203052;28;20048;-71
2021/04/29 04:22:56;;;;;;;63.22;48.00;;;;;;;;;;6209665;28;20050;-70
2021/04/29 04:25:57;;;;;;;65.20;47.58;;;;;;;;;;6210333;28;20141;-71
2021/04/29 04:28:59;;;;;;;67.90;48.75;;;;;;;;;;6215099;28;20680;-71
2021/04/29 04:32:00;;;;;;;65.72;48.65;;;;;;;;;;6210611;28;20449;-71
2021/04/29 04:35:01;;;;;;;65.95;48.97;;;;;;;;;;6211982;28;20038;-71
2021/04/29 04:38:02;;;;;;;71.28;50.63;;;;;;;;;;6203499;28;20469;-71
2021/04/29 04:41:04;;;;;;;69.55;50.90;;;;;;;;;;6206494;28;20706;-71
2021/04/29 04:44:06;;;;;;;68.25;50.63;;;;;;;;;;6203031;28;20070;-71
2021/04/29 04:47:07;;;;;;;70.55;51.25;;;;;;;;;;6197136;28;20033;-71
2021/04/29 04:50:09;;;;;;;68.88;50.70;;;;;;;;;;6200944;28;20054;-70
2021/04/29 04:53:10;;;;;;;66.78;50.72;;;;;;;;;;6208177;28;20049;-70
2021/04/29 04:56:11;;;;;;;67.35;50.85;;;;;;;;;;6204091;28;20048;-72
2021/04/29 04:59:13;;;;;;;71.18;52.33;;;;;;;;;;6206547;28;20405;-71
2021/04/29 05:02:14;;;;;;;68.53;51.45;;;;;;;;;;6203530;28;20481;-71
2021/04/29 05:05:15;;;;;;;69.47;51.20;;;;;;;;;;6213466;28;20535;-71
2021/04/29 05:08:16;;;;;;;71.25;52.70;;;;;;;;;;6211682;28;20157;-71
2021/04/29 05:11:18;;;;;;;71.97;52.80;;;;;;;;;;6210070;28;20355;-71
2021/04/29 05:14:19;;;;;;;71.40;51.60;;;;;;;;;;6202198;28;20057;-71
2021/04/29 05:17:21;;;;;;;71.20;52.65;;;;;;;;;;6204279;28;20038;-71
2021/04/29 05:20:22;;;;;;;70.63;53.47;;;;;;;;;;6210019;28;20548;-71
2021/04/29 05:23:23;;;;;;;73.05;53.55;;;;;;;;;;6215902;28;20091;-71
2021/04/29 05:26:24;;;;;;;74.15;54.95;;;;;;;;;;6213733;28;20048;-70
2021/04/29 05:29:27;;;;;;;73.22;53.10;;;;;;;;;;6210296;28;20033;-71
2021/04/29 05:32:28;;;;;;;76.15;53.67;;;;;;;;;;6207794;28;20042;-71
2021/04/29 05:35:29;;;;;;;74.97;54.75;;;;;;;;;;6205833;28;20220;-71
2021/04/29 05:38:30;;;;;;;70.45;51.42;;;;;;;;;;6204500;28;20044;-70
2021/04/29 05:41:31;;;;;;;74.35;53.75;;;;;;;;;;6213048;28;20080;-69
2021/04/29 05:44:33;;;;;;;75.97;52.55;;;;;;;;;;6199505;28;20034;-70
2021/04/29 05:47:34;;;;;;;72.32;52.92;;;;;;;;;;6200604;28;20141;-70
2021/04/29 05:50:35;;;;;;;73.60;54.33;;;;;;;;;;6201518;28;20048;-70
2021/04/29 05:53:36;;;;;;;74.82;53.67;;;;;;;;;;6200085;28;20129;-70
2021/04/29 05:56:37;;;;;;;75.82;52.95;;;;;;;;;;6198596;28;20053;-71
2021/04/29 05:59:39;;;;;;;81.60;54.75;;;;;;;;;;6201524;28;20042;-71
2021/04/29 06:02:40;;;;;;;75.40;55.85;;;;;;;;;;6202616;28;20496;-70
2021/04/29 06:05:41;;;;;;;71.22;49.55;;;;;;;;;;6205674;28;20057;-70
2021/04/29 06:08:42;;;;;;;67.60;48.80;;;;;;;;;;6201442;28;20043;-71
2021/04/29 06:11:44;;;;;;;67.35;48.50;;;;;;;;;;6203394;28;20038;-70
2021/04/29 06:14:46;;;;;;;68.30;49.65;;;;;;;;;;6207695;28;20400;-71
2021/04/29 06:17:47;;;;;;;60.50;44.80;;;;;;;;;;6206648;28;20396;-70
2021/04/29 06:20:48;;;;;;;58.70;44.55;;;;;;;;;;6207394;28;20128;-70
2021/04/29 06:23:49;;;;;;;62.75;45.58;;;;;;;;;;6214063;28;20042;-70
2021/04/29 06:26:50;;;;;;;64.53;47.10;;;;;;;;;;6211565;28;20107;-70
2021/04/29 06:29:52;;;;;;;62.20;47.47;;;;;;;;;;6212751;28;20072;-70
2021/04/29 06:32:53;;;;;;;65.40;48.60;;;;;;;;;;6186925;28;20046;-70
2021/04/29 06:35:54;;;;;;;67.05;48.50;;;;;;;;;;6182987;28;20141;-70
2021/04/29 06:38:56;;;;;;;68.78;47.13;;;;;;;;;;6171302;28;20142;-71
2021/04/29 06:41:57;;;;;;;63.15;46.33;;;;;;;;;;6186457;28;20136;-69
2021/04/29 06:44:59;;;;;;;58.95;44.58;;;;;;;;;;6203897;28;20805;-70
2021/04/29 06:48:00;;;;;;;56.75;42.80;;;;;;;;;;6197119;28;20065;-69
2021/04/29 06:51:01;;;;;;;59.17;43.75;;;;;;;;;;6193334;28;20042;-71
2021/04/29 06:54:03;;;;;;;57.30;43.85;;;;;;;;;;6189860;28;20042;-71
2021/04/29 06:57:05;;;;;;;61.80;44.25;;;;;;;;;;6188254;28;20050;-70
2021/04/29 07:00:09;;;;;;;60.00;43.38;;;;;;;;;;6180515;28;20039;-70
2021/04/29 07:03:10;;;;;;;61.65;43.30;;;;;;;;;;6180163;28;20433;-70
2021/04/29 07:06:11;;;;;;;56.30;42.05;;;;;;;;;;6202883;28;20162;-70
2021/04/29 07:09:12;;;;;;;54.65;41.38;;;;;;;;;;6189610;28;20684;-70
2021/04/29 07:12:13;;;;;;;52.83;40.25;;;;;;;;;;6187131;28;20488;-70
2021/04/29 07:15:16;;;;;;;52.72;38.53;;;;;;;;;;6178622;28;20626;-71
2021/04/29 07:18:19;;;;;;;51.28;38.25;;;;;;;;;;6175602;28;20093;-70
2021/04/29 07:21:20;;;;;;;46.17;34.67;;;;;;;;;;6179772;28;20062;-70
2021/04/29 07:24:21;;;;;;;46.00;34.58;;;;;;;;;;6185347;28;20042;-70
2021/04/29 07:27:22;;;;;;;46.35;35.38;;;;;;;;;;6175161;28;20077;-70
2021/04/29 07:30:25;;;;;;;39.90;30.35;;;;;;;;;;6181308;28;20141;-72
2021/04/29 07:33:26;;;;;;;40.65;29.30;;;;;;;;;;6177669;28;20042;-69
2021/04/29 07:36:28;;;;;;;38.10;26.98;;;;;;;;;;6178765;28;20046;-70
2021/04/29 07:39:29;;;;;;;35.55;25.98;;;;;;;;;;6189198;28;20053;-71
2021/04/29 07:42:30;;;;;;;36.92;26.25;;;;;;;;;;6202007;28;20141;-70
2021/04/29 07:45:32;;;;;;;35.03;25.98;;;;;;;;;;6194383;28;20077;-70
2021/04/29 07:48:33;;;;;;;32.92;23.73;;;;;;;;;;6184540;28;20057;-71
2021/04/29 07:51:35;;;;;;;32.90;23.83;;;;;;;;;;6178245;28;20042;-70
2021/04/29 07:54:36;;;;;;;33.58;24.85;;;;;;;;;;6180984;28;20478;-71
2021/04/29 07:57:37;;;;;;;33.20;25.50;;;;;;;;;;6177215;28;20043;-69
2021/04/29 08:00:39;;;;;;;33.08;24.58;;;;;;;;;;6167792;28;20107;-69
2021/04/29 08:03:40;;;;;;;34.72;25.70;;;;;;;;;;6183552;28;20078;-69
2021/04/29 08:06:42;;;;;;;29.50;23.90;;;;;;;;;;6190328;28;20042;-69
2021/04/29 08:09:43;;;;;;;34.30;25.95;;;;;;;;;;6188854;28;20417;-69
2021/04/29 08:12:44;;;;;;;35.83;26.10;;;;;;;;;;6179253;28;20506;-70
2021/04/29 08:15:46;;;;;;;37.55;26.40;;;;;;;;;;6181637;28;20118;-70
2021/04/29 08:18:49;;;;;;;34.22;26.50;;;;;;;;;;6180365;28;20427;-70
2021/04/29 08:21:50;;;;;;;32.53;26.13;;;;;;;;;;6178435;28;20124;-69
2021/04/29 08:24:51;;;;;;;36.30;27.90;;;;;;;;;;6181355;28;20442;-70
2021/04/29 08:27:52;;;;;;;38.75;27.55;;;;;;;;;;6176280;28;20393;-70
2021/04/29 08:30:54;;;;;;;36.72;28.65;;;;;;;;;;6209512;28;20049;-71
2021/04/29 08:33:55;;;;;;;37.03;27.50;;;;;;;;;;6210069;28;20041;-70
2021/04/29 08:36:56;;;;;;;37.78;28.00;;;;;;;;;;6184033;28;20613;-71
2021/04/29 08:39:57;;;;;;;39.63;29.42;;;;;;;;;;6202439;28;20038;-70
2021/04/29 08:42:58;;;;;;;38.50;29.05;;;;;;;;;;6178662;28;20042;-70
2021/04/29 08:46:00;;;;;;;36.78;28.70;;;;;;;;;;6201646;28;20517;-71
2021/04/29 08:49:02;;;;;;;37.72;28.75;;;;;;;;;;6203702;28;20136;-71
2021/04/29 08:52:03;;;;;;;39.65;29.77;;;;;;;;;;6203466;28;20133;-69
2021/04/29 08:55:06;;;;;;;40.20;29.50;;;;;;;;;;6204128;28;20486;-70
2021/04/29 08:58:09;;;;;;;39.83;29.88;;;;;;;;;;6180047;28;20532;-69
2021/04/29 09:01:11;;;;;;;42.63;29.63;;;;;;;;;;6179668;28;20042;-70
2021/04/29 09:04:13;;;;;;;42.65;30.77;;;;;;;;;;6188452;28;20400;-70
2021/04/29 09:07:16;;;;;;;41.03;31.15;;;;;;;;;;6179976;28;20137;-70
2021/04/29 09:10:21;;;;;;;40.25;30.23;;;;;;;;;;6192764;28;20138;-71
2021/04/29 09:13:24;;;;;;;40.10;29.67;;;;;;;;;;6186254;28;20103;-70
2021/04/29 09:16:37;;;;;;;41.17;31.85;;;;;;;;;;6202900;28;20064;-69
2021/04/29 09:19:46;;;;;;;43.43;31.53;;;;;;;;;;6200822;28;20046;-69
2021/04/29 09:22:57;;;;;;;39.97;30.92;;;;;;;;;;6198289;28;20046;-69
2021/04/29 09:26:00;;;;;;;42.17;31.02;;;;;;;;;;6187122;28;20143;-70
2021/04/29 09:29:08;;;;;;;39.30;30.25;;;;;;;;;;6188761;28;20085;-68
2021/04/29 09:32:10;;;;;;;38.75;30.25;;;;;;;;;;6199886;28;20046;-70
2021/04/29 09:35:18;;;;;;;37.50;28.35;;;;;;;;;;6206365;28;20073;-70
2021/04/29 09:38:20;;;;;;;38.28;29.45;;;;;;;;;;6206715;28;20105;-69
2021/04/29 09:41:23;;;;;;;38.58;28.52;;;;;;;;;;6200010;28;20523;-70
2021/04/29 09:44:25;;;;;;;43.60;30.67;;;;;;;;;;6201488;28;20144;-69
2021/04/29 09:47:27;;;;;;;39.88;29.25;;;;;;;;;;6203138;28;20112;-70
2021/04/29 09:50:30;;;;;;;39.75;29.52;;;;;;;;;;6202762;28;20153;-69
2021/04/29 09:53:42;;;;;;;40.40;31.27;;;;;;;;;;6207959;28;20046;-70
2021/04/29 09:56:52;;;;;;;39.67;29.88;;;;;;;;;;6203289;28;20115;-70
2021/04/29 09:59:57;;;;;;;43.92;30.10;;;;;;;;;;6204166;28;20568;-70
2021/04/29 10:02:59;;;;;;;41.30;30.48;;;;;;;;;;6200230;28;20049;-71
2021/04/29 10:06:00;;;;;;;43.67;31.88;;;;;;;;;;6201267;28;20408;-72
2021/04/29 10:09:01;;;;;;;43.60;30.63;;;;;;;;;;6196310;28;20551;-72
2021/04/29 10:12:04;;;;;;;38.00;29.98;;;;;;;;;;6207024;28;20033;-72
2021/04/29 10:15:06;;;;;;;39.60;30.50;;;;;;;;;;6199699;28;20046;-70
2021/04/29 10:18:10;;;;;;;41.80;30.33;;;;;;;;;;6202885;28;20133;-70
2021/04/29 10:21:11;;;;;;;42.50;31.50;;;;;;;;;;6199921;28;20141;-71
2021/04/29 10:24:15;;;;;;;44.10;32.72;;;;;;;;;;6195075;28;20068;-70
2021/04/29 10:27:17;;;;;;;47.40;34.55;;;;;;;;;;6202685;28;20040;-69
2021/04/29 10:30:20;;;;;;;45.58;32.53;;;;;;;;;;6208308;28;20040;-70
2021/04/29 10:33:22;;;;;;;41.05;31.80;;;;;;;;;;6208015;28;20042;-70
2021/04/29 10:36:35;;;;;;;49.28;34.97;;;;;;;;;;6207780;28;20133;-70
2021/04/29 10:39:36;;;;;;;48.63;34.90;;;;;;;;;;6181923;28;20117;-69
2021/04/29 10:42:44;;;;;;;50.50;35.38;;;;;;;;;;6184070;28;20060;-69
2021/04/29 10:45:51;;;;;;;46.13;32.72;;;;;;;;;;6208151;28;20037;-71
2021/04/29 10:48:54;;;;;;;47.10;34.13;;;;;;;;;;6203374;28;20043;-69
2021/04/29 10:52:00;;;;;;;45.20;32.88;;;;;;;;;;6205436;28;20042;-70
2021/04/29 10:55:01;;;;;;;46.30;32.22;;;;;;;;;;6207777;28;20114;-71
2021/04/29 10:58:03;;;;;;;44.88;32.30;;;;;;;;;;6205176;28;20092;-72
2021/04/29 11:01:06;;;;;;;46.65;31.35;;;;;;;;;;6206316;28;20500;-70
2021/04/29 11:04:17;;;;;;;41.97;31.10;;;;;;;;;;6203978;28;20060;-70
2021/04/29 11:07:20;;;;;;;39.80;29.60;;;;;;;;;;6206996;28;20044;-70
2021/04/29 11:10:24;;;;;;;40.95;29.75;;;;;;;;;;6206559;28;20049;-72
2021/04/29 11:13:26;;;;;;;41.83;30.17;;;;;;;;;;6206348;28;20053;-72
2021/04/29 11:16:28;;;;;;;39.88;29.90;;;;;;;;;;6206592;28;20040;-71
2021/04/29 11:19:41;;;;;;;39.03;29.05;;;;;;;;;;6206293;28;20107;-71
2021/04/29 11:22:49;;;;;;;42.28;28.48;;;;;;;;;;6205903;28;20047;-70
2021/04/29 11:25:50;;;;;;;42.20;30.23;;;;;;;;;;6205635;28;20038;-72
2021/04/29 11:28:52;;;;;;;46.10;32.22;;;;;;;;;;6207463;28;20068;-70
2021/04/29 11:31:53;;;;;;;47.50;32.38;;;;;;;;;;6204811;28;20074;-70
2021/04/29 11:34:55;;;;;;;47.38;32.13;;;;;;;;;;6206031;28;20088;-70
2021/04/29 11:37:57;;;;;;;44.20;31.17;;;;;;;;;;6205700;28;20042;-69
2021/04/29 11:40:58;;;;;;;45.53;32.10;;;;;;;;;;6208096;28;20049;-71
2021/04/29 11:43:59;;;;;;;43.67;30.98;;;;;;;;;;6206425;28;20487;-71
2021/04/29 11:47:01;;;;;;;45.97;31.52;;;;;;;;;;6200773;28;20524;-73
2021/04/29 11:50:03;;;;;;;36.03;27.00;;;;;;;;;;6199789;28;20042;-70
2021/04/29 11:53:09;;;;;;;38.25;26.35;;;;;;;;;;6206276;28;20154;-70
2021/04/29 11:56:13;;;;;;;30.02;24.17;;;;;;;;;;6213433;28;20068;-70
2021/04/29 11:59:16;;;;;;;32.90;24.17;;;;;;;;;;6209526;28;20449;-70
2021/04/29 12:02:17;;;;;;;31.27;21.63;;;;;;;;;;6210708;28;20062;-70
2021/04/29 12:05:30;;;;;;;31.13;21.75;;;;;;;;;;6212158;28;20112;-70
2021/04/29 12:08:33;;;;;;;29.85;21.45;;;;;;;;;;6187953;28;20484;-69
2021/04/29 12:11:34;;;;;;;28.77;22.00;;;;;;;;;;6210042;28;20069;-70
2021/04/29 12:14:35;;;;;;;36.40;23.00;;;;;;;;;;6210248;28;20571;-71
2021/04/29 12:17:36;;;;;;;27.52;20.40;;;;;;;;;;6208975;28;20145;-72
2021/04/29 12:20:38;;;;;;;29.23;21.50;;;;;;;;;;6209455;28;20125;-71
2021/04/29 12:23:40;;;;;;;29.05;21.60;;;;;;;;;;6207922;28;20690;-69
2021/04/29 12:26:42;;;;;;;30.75;22.27;;;;;;;;;;6188167;28;20109;-69
2021/04/29 12:29:44;;;;;;;27.63;21.38;;;;;;;;;;6176781;28;20058;-69
2021/04/29 12:32:46;;;;;;;31.52;22.67;;;;;;;;;;6192502;28;20453;-69
2021/04/29 12:35:49;;;;;;;33.90;22.10;;;;;;;;;;6195460;28;20049;-70
2021/04/29 12:38:50;;;;;;;32.97;22.55;;;;;;;;;;6181718;28;20072;-70
2021/04/29 12:41:53;;;;;;;33.55;23.88;;;;;;;;;;6188100;28;20044;-69
2021/04/29 12:44:58;;;;;;;36.58;28.27;;;;;;;;;;6208155;28;20381;-69
2021/04/29 12:47:59;;;;;;;44.67;32.25;;;;;;;;;;6208913;28;20052;-70
2021/04/29 12:51:05;;;;;;;45.58;33.45;;;;;;;;;;6206830;28;20052;-70
2021/04/29 12:54:11;;;;;;;49.58;34.33;;;;;;;;;;6192272;28;20058;-69
2021/04/29 12:57:12;;;;;;;52.03;36.03;;;;;;;;;;6196539;28;20060;-69
2021/04/29 13:00:15;;;;;;;55.97;37.67;;;;;;;;;;6195105;28;20157;-69
2021/04/29 13:03:16;;;;;;;56.35;37.92;;;;;;;;;;6185317;28;20077;-69
2021/04/29 13:06:18;;;;;;;61.42;40.20;;;;;;;;;;6182087;28;20072;-69
2021/04/29 13:09:20;;;;;;;56.10;39.00;;;;;;;;;;6181985;28;20065;-70
2021/04/29 13:12:21;;;;;;;55.67;37.95;;;;;;;;;;6183118;28;20038;-69
2021/04/29 13:15:23;;;;;;;52.47;36.35;;;;;;;;;;6201376;28;20056;-70
2021/04/29 13:18:26;;;;;;;46.70;34.13;;;;;;;;;;6202031;28;20069;-70
2021/04/29 13:21:28;;;;;;;49.92;36.15;;;;;;;;;;6201031;28;20046;-69
2021/04/29 13:24:29;;;;;;;52.40;36.30;;;;;;;;;;6183211;28;20038;-69
2021/04/29 13:27:30;;;;;;;55.55;36.60;;;;;;;;;;6183287;28;20076;-69
2021/04/29 13:30:31;;;;;;;56.17;37.20;;;;;;;;;;6185839;28;20041;-69
2021/04/29 13:33:32;;;;;;;57.97;38.95;;;;;;;;;;6208164;28;20042;-68
2021/04/29 13:36:34;;;;;;;51.65;38.58;;;;;;;;;;6210390;28;20420;-68
2021/04/29 13:39:35;;;;;;;55.55;38.63;;;;;;;;;;6211126;28;20034;-69
2021/04/29 13:42:36;;;;;;;52.38;36.55;;;;;;;;;;6204573;28;20880;-69
2021/04/29 13:45:39;;;;;;;49.55;37.13;;;;;;;;;;6199050;28;20054;-68
2021/04/29 13:48:40;;;;;;;50.08;34.70;;;;;;;;;;6208021;28;20042;-69
2021/04/29 13:51:42;;;;;;;53.88;37.38;;;;;;;;;;6201754;28;20187;-69
2021/04/29 13:54:43;;;;;;;52.88;37.83;;;;;;;;;;6200346;28;21399;-69
2021/04/29 13:57:44;;;;;;;51.22;36.25;;;;;;;;;;6207346;28;20737;-69
2021/04/29 14:00:45;;;;;;;52.28;35.80;;;;;;;;;;6198240;28;20037;-69
2021/04/29 14:03:47;;;;;;;50.90;36.65;;;;;;;;;;6196155;28;20401;-68
2021/04/29 14:06:49;;;;;;;50.60;36.05;;;;;;;;;;6200959;28;20062;-68
2021/04/29 14:09:50;;;;;;;53.90;37.40;;;;;;;;;;6202556;28;20233;-69
2021/04/29 14:12:51;;;;;;;47.47;35.03;;;;;;;;;;6200522;28;20517;-69
2021/04/29 14:15:52;;;;;;;49.72;36.35;;;;;;;;;;6198571;28;20058;-68
2021/04/29 14:18:53;;;;;;;47.28;34.50;;;;;;;;;;6202398;28;20053;-69
2021/04/29 14:21:58;;;;;;;49.10;35.72;;;;;;;;;;6204357;28;20050;-68
2021/04/29 14:24:59;;;;;;;47.05;34.55;;;;;;;;;;6204160;28;20030;-67
2021/04/29 14:28:01;;;;;;;48.63;35.05;;;;;;;;;;6207556;28;20096;-68
2021/04/29 14:31:02;;;;;;;45.42;32.50;;;;;;;;;;6205984;28;20100;-68
2021/04/29 14:34:04;;;;;;;49.58;34.25;;;;;;;;;;6207847;28;20170;-68
2021/04/29 14:37:06;;;;;;;47.28;34.15;;;;;;;;;;6208892;28;20121;-68
2021/04/29 14:40:08;;;;;;;49.90;35.05;;;;;;;;;;6208870;28;20117;-68
2021/04/29 14:43:09;;;;;;;49.40;35.75;;;;;;;;;;6211369;28;20058;-68
2021/04/29 14:46:11;;;;;;;49.90;34.08;;;;;;;;;;6205448;28;20049;-69
2021/04/29 14:49:12;;;;;;;46.60;34.38;;;;;;;;;;6209154;28;20547;-70
2021/04/29 14:52:14;;;;;;;48.38;34.60;;;;;;;;;;6209332;28;20515;-69
2021/04/29 14:55:15;;;;;;;50.90;34.25;;;;;;;;;;6207989;28;20045;-68
2021/04/29 14:58:16;;;;;;;53.15;38.72;;;;;;;;;;6211283;28;20120;-69
2021/04/29 15:01:17;;;;;;;52.45;38.00;;;;;;;;;;6207857;28;20042;-68
2021/04/29 15:04:18;;;;;;;54.13;38.67;;;;;;;;;;6209195;28;20057;-69
2021/04/29 15:07:21;;;;;;;54.38;37.47;;;;;;;;;;6199386;28;20060;-70
2021/04/29 15:10:22;;;;;;;52.88;36.30;;;;;;;;;;6200359;28;20523;-69
2021/04/29 15:13:23;;;;;;;50.30;35.45;;;;;;;;;;6201671;28;20095;-68
2021/04/29 15:16:24;;;;;;;47.22;34.25;;;;;;;;;;6199183;28;20077;-68
2021/04/29 15:19:25;;;;;;;53.15;36.70;;;;;;;;;;6198338;28;20081;-68
2021/04/29 15:22:27;;;;;;;54.35;37.05;;;;;;;;;;6205441;28;20091;-69
2021/04/29 15:25:28;;;;;;;52.95;35.92;;;;;;;;;;6205772;28;20060;-68
2021/04/29 15:28:30;;;;;;;52.90;36.13;;;;;;;;;;6210359;28;20133;-68
2021/04/29 15:31:31;;;;;;;57.90;37.97;;;;;;;;;;6214619;28;20088;-69
2021/04/29 15:34:33;;;;;;;57.45;39.03;;;;;;;;;;6213734;28;20046;-68
2021/04/29 15:37:35;;;;;;;57.70;39.05;;;;;;;;;;6212568;28;20064;-69
2021/04/29 15:40:37;;;;;;;58.30;39.75;;;;;;;;;;6213353;28;20468;-69
2021/04/29 15:43:38;;;;;;;60.40;41.55;;;;;;;;;;6213642;28;20159;-69
2021/04/29 15:46:39;;;;;;;59.15;39.97;;;;;;;;;;6202753;28;23440;-69
2021/04/29 15:49:40;;;;;;;59.47;39.58;;;;;;;;;;6203457;28;20117;-70
2021/04/29 15:52:42;;;;;;;56.33;38.13;;;;;;;;;;6200701;28;20412;-70
2021/04/29 15:55:43;;;;;;;53.55;37.03;;;;;;;;;;6203701;28;20038;-70
2021/04/29 15:58:44;;;;;;;55.75;39.15;;;;;;;;;;6204318;28;20481;-70
2021/04/29 16:01:46;;;;;;;51.47;36.90;;;;;;;;;;6203474;28;20124;-70
2021/04/29 16:04:47;;;;;;;58.40;39.28;;;;;;;;;;6202016;28;20053;-70
2021/04/29 16:07:49;;;;;;;58.17;38.40;;;;;;;;;;6186053;28;20949;-69
2021/04/29 16:10:50;;;;;;;58.75;40.85;;;;;;;;;;6206144;28;20068;-69
2021/04/29 16:13:51;;;;;;;60.28;39.33;;;;;;;;;;6204196;28;20054;-69
2021/04/29 16:16:52;;;;;;;58.13;39.72;;;;;;;;;;6181346;28;20083;-69
2021/04/29 16:19:53;;;;;;;58.00;40.50;;;;;;;;;;6184926;28;20079;-71
2021/04/29 16:22:55;;;;;;;58.05;39.50;;;;;;;;;;6184494;28;20050;-70
2021/04/29 16:25:56;;;;;;;58.40;39.92;;;;;;;;;;6186289;28;20046;-70
2021/04/29 16:28:57;;;;;;;53.42;38.20;;;;;;;;;;6189010;28;20049;-69
2021/04/29 16:32:01;;;;;;;58.35;38.63;;;;;;;;;;6187799;28;20121;-70
2021/04/29 16:35:03;;;;;;;59.00;40.13;;;;;;;;;;6187378;28;20125;-70
2021/04/29 16:38:05;;;;;;;60.92;41.55;;;;;;;;;;6191350;28;20046;-69
2021/04/29 16:41:06;;;;;;;57.53;39.38;;;;;;;;;;6185736;28;20068;-70
2021/04/29 16:44:08;;;;;;;55.13;39.88;;;;;;;;;;6187106;28;20500;-69
2021/04/29 16:47:09;;;;;;;54.78;38.63;;;;;;;;;;6179051;28;20042;-70
2021/04/29 16:50:11;;;;;;;56.05;36.88;;;;;;;;;;6178531;28;20141;-70
2021/04/29 16:53:13;;;;;;;57.03;40.40;;;;;;;;;;6177558;28;20051;-69
2021/04/29 16:56:14;;;;;;;54.30;38.10;;;;;;;;;;6180160;28;20509;-71
2021/04/29 16:59:15;;;;;;;57.65;39.03;;;;;;;;;;6178358;28;20537;-70
2021/04/29 17:02:16;;;;;;;56.67;38.90;;;;;;;;;;6179745;28;20061;-74
2021/04/29 17:05:17;;;;;;;58.13;39.10;;;;;;;;;;6179314;28;20047;-69
2021/04/29 17:08:20;;;;;;;52.72;36.78;;;;;;;;;;6180094;28;20380;-70
2021/04/29 17:11:21;;;;;;;54.92;37.88;;;;;;;;;;6175641;28;20067;-70
2021/04/29 17:14:23;;;;;;;56.50;38.28;;;;;;;;;;6177751;28;20042;-68
2021/04/29 17:17:24;;;;;;;55.35;38.40;;;;;;;;;;6185357;28;20118;-68
2021/04/29 17:20:25;;;;;;;56.28;37.45;;;;;;;;;;6183709;28;20058;-69
2021/04/29 17:23:27;;;;;;;57.38;38.78;;;;;;;;;;6187787;28;20481;-69
2021/04/29 17:26:28;;;;;;;54.58;37.85;;;;;;;;;;6187006;28;20481;-71
2021/04/29 17:29:29;;;;;;;58.03;38.65;;;;;;;;;;6186852;28;20141;-69
2021/04/29 17:32:30;;;;;;;54.00;37.53;;;;;;;;;;6189395;28;20049;-69
2021/04/29 17:35:31;;;;;;;53.92;37.83;;;;;;;;;;6184311;28;20133;-70
2021/04/29 17:38:33;;;;;;;55.10;37.88;;;;;;;;;;6186260;28;20132;-69
2021/04/29 17:41:35;;;;;;;55.80;37.00;;;;;;;;;;6185401;28;20074;-70
2021/04/29 17:44:36;;;;;;;55.60;38.80;;;;;;;;;;6187073;28;20133;-69